sensor_id;sensor_type;location;lat;lon;timestamp;temperature;humidity
46552;DHT22;32278;51.810;4.712;2022-09-21T00:00:39;12.60;99.90
46552;DHT22;32278;51.810;4.712;2022-09-21T00:03:05;12.60;99.90
46552;DHT22;32278;51.810;4.712;2022-09-21T00:05:32;12.70;99.90
46552;DHT22;32278;51.810;4.712;2022-09-21T00:08:02;12.90;99.90
46552;DHT22;32278;51.810;4.712;2022-09-21T00:10:29;13.00;99.90
46552;DHT22;32278;51.810;4.712;2022-09-21T00:12:55;13.00;99.90
46552;DHT22;32278;51.810;4.712;2022-09-21T00:15:21;12.90;99.90
46552;DHT22;32278;51.810;4.712;2022-09-21T00:17:51;13.00;99.90
46552;DHT22;32278;51.810;4.712;2022-09-21T00:20:16;13.10;99.90
46552;DHT22;32278;51.810;4.712;2022-09-21T00:22:42;13.20;99.90
46552;DHT22;32278;51.810;4.712;2022-09-21T00:25:09;13.30;99.90
46552;DHT22;32278;51.810;4.712;2022-09-21T00:27:34;13.40;99.90
46552;DHT22;32278;51.810;4.712;2022-09-21T00:30:00;13.30;99.90
46552;DHT22;32278;51.810;4.712;2022-09-21T00:32:30;13.20;99.90
46552;DHT22;32278;51.810;4.712;2022-09-21T00:34:57;13.30;99.90
46552;DHT22;32278;51.810;4.712;2022-09-21T00:37:23;13.30;99.90
46552;DHT22;32278;51.810;4.712;2022-09-21T00:39:49;13.30;99.90
46552;DHT22;32278;51.810;4.712;2022-09-21T00:42:18;13.40;99.90
46552;DHT22;32278;51.810;4.712;2022-09-21T00:44:44;13.50;99.90
46552;DHT22;32278;51.810;4.712;2022-09-21T00:47:12;13.50;99.90
46552;DHT22;32278;51.810;4.712;2022-09-21T00:49:40;13.50;99.90
46552;DHT22;32278;51.810;4.712;2022-09-21T00:52:07;13.40;99.90
46552;DHT22;32278;51.810;4.712;2022-09-21T00:54:50;13.30;99.90
46552;DHT22;32278;51.810;4.712;2022-09-21T00:57:17;13.20;99.90
46552;DHT22;32278;51.810;4.712;2022-09-21T00:59:48;13.20;99.90
46552;DHT22;32278;51.810;4.712;2022-09-21T01:02:15;13.20;99.90
46552;DHT22;32278;51.810;4.712;2022-09-21T01:04:42;13.20;99.90
46552;DHT22;32278;51.810;4.712;2022-09-21T01:07:11;13.30;99.90
46552;DHT22;32278;51.810;4.712;2022-09-21T01:09:40;13.40;99.90
46552;DHT22;32278;51.810;4.712;2022-09-21T01:12:43;13.30;99.90
46552;DHT22;32278;51.810;4.712;2022-09-21T01:20:45;13.30;99.90
46552;DHT22;32278;51.810;4.712;2022-09-21T01:28:57;13.20;99.90
46552;DHT22;32278;51.810;4.712;2022-09-21T01:31:32;13.10;99.90
46552;DHT22;32278;51.810;4.712;2022-09-21T01:34:06;13.10;99.90
46552;DHT22;32278;51.810;4.712;2022-09-21T01:36:32;13.00;99.90
46552;DHT22;32278;51.810;4.712;2022-09-21T01:39:18;13.00;99.90
46552;DHT22;32278;51.810;4.712;2022-09-21T01:41:46;13.10;99.90
46552;DHT22;32278;51.810;4.712;2022-09-21T01:44:17;13.10;99.90
46552;DHT22;32278;51.810;4.712;2022-09-21T01:46:46;13.10;99.90
46552;DHT22;32278;51.810;4.712;2022-09-21T01:49:20;13.10;99.90
46552;DHT22;32278;51.810;4.712;2022-09-21T01:51:54;13.20;99.90
46552;DHT22;32278;51.810;4.712;2022-09-21T01:54:27;12.90;99.90
46552;DHT22;32278;51.810;4.712;2022-09-21T01:57:05;12.80;99.90
46552;DHT22;32278;51.810;4.712;2022-09-21T01:59:44;12.70;99.90
46552;DHT22;32278;51.810;4.712;2022-09-21T02:02:14;12.70;99.90
46552;DHT22;32278;51.810;4.712;2022-09-21T02:04:41;12.60;99.90
46552;DHT22;32278;51.810;4.712;2022-09-21T02:07:07;12.50;99.90
46552;DHT22;32278;51.810;4.712;2022-09-21T02:09:34;12.50;99.90
46552;DHT22;32278;51.810;4.712;2022-09-21T02:12:02;12.50;99.90
46552;DHT22;32278;51.810;4.712;2022-09-21T02:14:28;12.50;99.90
46552;DHT22;32278;51.810;4.712;2022-09-21T02:20:11;12.60;99.90
46552;DHT22;32278;51.810;4.712;2022-09-21T02:25:38;12.40;99.90
46552;DHT22;32278;51.810;4.712;2022-09-21T02:28:45;12.40;99.90
46552;DHT22;32278;51.810;4.712;2022-09-21T02:34:03;12.40;99.90
46552;DHT22;32278;51.810;4.712;2022-09-21T02:36:32;12.30;99.90
46552;DHT22;32278;51.810;4.712;2022-09-21T02:39:06;12.20;99.90
46552;DHT22;32278;51.810;4.712;2022-09-21T02:41:42;12.20;99.90
46552;DHT22;32278;51.810;4.712;2022-09-21T02:44:17;12.20;99.90
46552;DHT22;32278;51.810;4.712;2022-09-21T02:47:21;12.20;99.90
46552;DHT22;32278;51.810;4.712;2022-09-21T02:49:51;12.00;99.90
46552;DHT22;32278;51.810;4.712;2022-09-21T02:52:19;11.80;99.90
46552;DHT22;32278;51.810;4.712;2022-09-21T02:54:48;11.80;99.90
46552;DHT22;32278;51.810;4.712;2022-09-21T02:57:17;11.90;99.90
46552;DHT22;32278;51.810;4.712;2022-09-21T02:59:44;11.90;99.90
46552;DHT22;32278;51.810;4.712;2022-09-21T03:02:10;11.80;99.90
46552;DHT22;32278;51.810;4.712;2022-09-21T03:04:40;11.80;99.90
46552;DHT22;32278;51.810;4.712;2022-09-21T03:07:08;11.70;99.90
46552;DHT22;32278;51.810;4.712;2022-09-21T03:09:34;11.70;99.90
46552;DHT22;32278;51.810;4.712;2022-09-21T03:12:00;11.80;99.90
46552;DHT22;32278;51.810;4.712;2022-09-21T03:14:26;11.80;99.90
46552;DHT22;32278;51.810;4.712;2022-09-21T03:16:51;11.90;99.90
46552;DHT22;32278;51.810;4.712;2022-09-21T03:19:18;11.80;99.90
46552;DHT22;32278;51.810;4.712;2022-09-21T03:21:43;11.70;99.90
46552;DHT22;32278;51.810;4.712;2022-09-21T03:24:09;11.60;99.90
46552;DHT22;32278;51.810;4.712;2022-09-21T03:26:34;11.60;99.90
46552;DHT22;32278;51.810;4.712;2022-09-21T03:29:02;11.60;99.90
46552;DHT22;32278;51.810;4.712;2022-09-21T03:31:28;11.60;99.90
46552;DHT22;32278;51.810;4.712;2022-09-21T03:33:54;11.60;99.90
46552;DHT22;32278;51.810;4.712;2022-09-21T03:36:19;11.50;99.90
46552;DHT22;32278;51.810;4.712;2022-09-21T03:38:45;11.40;99.90
46552;DHT22;32278;51.810;4.712;2022-09-21T03:41:11;11.40;99.90
46552;DHT22;32278;51.810;4.712;2022-09-21T03:43:38;11.50;99.90
46552;DHT22;32278;51.810;4.712;2022-09-21T03:46:04;11.50;99.90
46552;DHT22;32278;51.810;4.712;2022-09-21T03:48:29;11.60;99.90
46552;DHT22;32278;51.810;4.712;2022-09-21T03:50:57;11.70;99.90
46552;DHT22;32278;51.810;4.712;2022-09-21T03:53:22;11.70;99.90
46552;DHT22;32278;51.810;4.712;2022-09-21T03:55:48;11.70;99.90
46552;DHT22;32278;51.810;4.712;2022-09-21T03:58:14;11.60;99.90
46552;DHT22;32278;51.810;4.712;2022-09-21T04:00:39;11.60;99.90
46552;DHT22;32278;51.810;4.712;2022-09-21T04:03:05;11.60;99.90
46552;DHT22;32278;51.810;4.712;2022-09-21T04:05:31;11.60;99.90
46552;DHT22;32278;51.810;4.712;2022-09-21T04:07:56;11.60;99.90
46552;DHT22;32278;51.810;4.712;2022-09-21T04:10:23;11.60;99.90
46552;DHT22;32278;51.810;4.712;2022-09-21T04:12:51;11.40;99.90
46552;DHT22;32278;51.810;4.712;2022-09-21T04:15:21;11.30;99.90
46552;DHT22;32278;51.810;4.712;2022-09-21T04:17:50;11.30;99.90
46552;DHT22;32278;51.810;4.712;2022-09-21T04:20:16;11.30;99.90
46552;DHT22;32278;51.810;4.712;2022-09-21T04:22:42;11.30;99.90
46552;DHT22;32278;51.810;4.712;2022-09-21T04:25:09;11.30;99.90
46552;DHT22;32278;51.810;4.712;2022-09-21T04:27:35;11.40;99.90
46552;DHT22;32278;51.810;4.712;2022-09-21T04:30:00;11.50;99.90
46552;DHT22;32278;51.810;4.712;2022-09-21T04:32:26;11.50;99.90
46552;DHT22;32278;51.810;4.712;2022-09-21T04:34:51;11.40;99.90
46552;DHT22;32278;51.810;4.712;2022-09-21T04:37:17;11.40;99.90
46552;DHT22;32278;51.810;4.712;2022-09-21T04:39:43;11.30;99.90
46552;DHT22;32278;51.810;4.712;2022-09-21T04:42:09;11.20;99.90
46552;DHT22;32278;51.810;4.712;2022-09-21T04:44:35;11.10;99.90
46552;DHT22;32278;51.810;4.712;2022-09-21T04:47:00;11.10;99.90
46552;DHT22;32278;51.810;4.712;2022-09-21T04:49:26;11.20;99.90
46552;DHT22;32278;51.810;4.712;2022-09-21T04:51:51;11.20;99.90
46552;DHT22;32278;51.810;4.712;2022-09-21T04:54:17;11.10;99.90
46552;DHT22;32278;51.810;4.712;2022-09-21T04:56:43;11.20;99.90
46552;DHT22;32278;51.810;4.712;2022-09-21T04:59:08;11.20;99.90
46552;DHT22;32278;51.810;4.712;2022-09-21T05:01:34;11.10;99.90
46552;DHT22;32278;51.810;4.712;2022-09-21T05:03:59;11.10;99.90
46552;DHT22;32278;51.810;4.712;2022-09-21T05:06:31;11.10;99.90
46552;DHT22;32278;51.810;4.712;2022-09-21T05:08:57;11.20;99.90
46552;DHT22;32278;51.810;4.712;2022-09-21T05:11:42;11.10;99.90
46552;DHT22;32278;51.810;4.712;2022-09-21T05:14:08;11.00;99.90
46552;DHT22;32278;51.810;4.712;2022-09-21T05:16:34;11.00;99.90
46552;DHT22;32278;51.810;4.712;2022-09-21T05:18:59;11.00;99.90
46552;DHT22;32278;51.810;4.712;2022-09-21T05:21:25;10.90;99.90
46552;DHT22;32278;51.810;4.712;2022-09-21T05:23:51;11.10;99.90
46552;DHT22;32278;51.810;4.712;2022-09-21T05:26:17;11.10;99.90
46552;DHT22;32278;51.810;4.712;2022-09-21T05:28:43;11.10;99.90
46552;DHT22;32278;51.810;4.712;2022-09-21T05:31:11;11.20;99.90
46552;DHT22;32278;51.810;4.712;2022-09-21T05:34:07;11.10;99.90
46552;DHT22;32278;51.810;4.712;2022-09-21T05:36:44;11.20;99.90
46552;DHT22;32278;51.810;4.712;2022-09-21T05:39:12;11.20;99.90
46552;DHT22;32278;51.810;4.712;2022-09-21T05:41:38;11.20;99.90
46552;DHT22;32278;51.810;4.712;2022-09-21T05:44:04;11.20;99.90
46552;DHT22;32278;51.810;4.712;2022-09-21T05:46:42;11.20;99.90
46552;DHT22;32278;51.810;4.712;2022-09-21T05:53:37;11.30;99.90
46552;DHT22;32278;51.810;4.712;2022-09-21T05:58:20;11.30;99.90
46552;DHT22;32278;51.810;4.712;2022-09-21T06:03:27;11.30;99.90
46552;DHT22;32278;51.810;4.712;2022-09-21T06:05:53;11.40;99.90
46552;DHT22;32278;51.810;4.712;2022-09-21T06:08:19;11.40;99.90
46552;DHT22;32278;51.810;4.712;2022-09-21T06:10:45;11.50;99.90
46552;DHT22;32278;51.810;4.712;2022-09-21T06:13:10;11.60;99.90
46552;DHT22;32278;51.810;4.712;2022-09-21T06:15:36;11.70;99.90
46552;DHT22;32278;51.810;4.712;2022-09-21T06:18:06;11.90;99.90
46552;DHT22;32278;51.810;4.712;2022-09-21T06:20:33;12.00;99.90
46552;DHT22;32278;51.810;4.712;2022-09-21T06:23:09;12.10;99.90
46552;DHT22;32278;51.810;4.712;2022-09-21T06:25:36;12.20;99.90
46552;DHT22;32278;51.810;4.712;2022-09-21T06:28:09;12.30;99.90
46552;DHT22;32278;51.810;4.712;2022-09-21T06:30:36;12.50;99.90
46552;DHT22;32278;51.810;4.712;2022-09-21T06:33:03;12.70;99.90
46552;DHT22;32278;51.810;4.712;2022-09-21T06:35:30;12.90;99.90
46552;DHT22;32278;51.810;4.712;2022-09-21T06:38:00;13.00;99.90
46552;DHT22;32278;51.810;4.712;2022-09-21T06:40:27;13.20;99.90
46552;DHT22;32278;51.810;4.712;2022-09-21T06:42:57;13.30;99.90
46552;DHT22;32278;51.810;4.712;2022-09-21T06:45:23;13.30;99.90
46552;DHT22;32278;51.810;4.712;2022-09-21T06:47:49;13.40;99.90
46552;DHT22;32278;51.810;4.712;2022-09-21T06:50:14;13.50;99.90
46552;DHT22;32278;51.810;4.712;2022-09-21T06:52:40;13.50;99.90
46552;DHT22;32278;51.810;4.712;2022-09-21T06:55:07;13.50;99.90
46552;DHT22;32278;51.810;4.712;2022-09-21T06:57:32;13.50;99.90
46552;DHT22;32278;51.810;4.712;2022-09-21T06:59:58;13.50;99.90
46552;DHT22;32278;51.810;4.712;2022-09-21T07:02:23;13.60;99.90
46552;DHT22;32278;51.810;4.712;2022-09-21T07:04:49;13.60;99.90
46552;DHT22;32278;51.810;4.712;2022-09-21T07:07:14;13.70;99.90
46552;DHT22;32278;51.810;4.712;2022-09-21T07:09:40;13.90;99.90
46552;DHT22;32278;51.810;4.712;2022-09-21T07:12:09;13.90;99.90
46552;DHT22;32278;51.810;4.712;2022-09-21T07:14:35;14.00;99.90
46552;DHT22;32278;51.810;4.712;2022-09-21T07:17:00;13.90;99.90
46552;DHT22;32278;51.810;4.712;2022-09-21T07:19:26;13.90;99.90
46552;DHT22;32278;51.810;4.712;2022-09-21T07:21:53;13.80;99.90
46552;DHT22;32278;51.810;4.712;2022-09-21T07:24:19;13.80;99.90
46552;DHT22;32278;51.810;4.712;2022-09-21T07:26:45;13.70;99.90
46552;DHT22;32278;51.810;4.712;2022-09-21T07:29:11;13.70;99.90
46552;DHT22;32278;51.810;4.712;2022-09-21T07:31:36;13.70;99.90
46552;DHT22;32278;51.810;4.712;2022-09-21T07:34:02;13.80;99.90
46552;DHT22;32278;51.810;4.712;2022-09-21T07:36:28;13.80;99.90
46552;DHT22;32278;51.810;4.712;2022-09-21T07:38:53;13.80;99.90
46552;DHT22;32278;51.810;4.712;2022-09-21T07:41:19;13.80;99.90
46552;DHT22;32278;51.810;4.712;2022-09-21T07:43:44;13.90;99.90
46552;DHT22;32278;51.810;4.712;2022-09-21T07:46:13;14.00;99.90
46552;DHT22;32278;51.810;4.712;2022-09-21T07:48:39;13.90;99.90
46552;DHT22;32278;51.810;4.712;2022-09-21T07:51:07;14.00;99.90
46552;DHT22;32278;51.810;4.712;2022-09-21T07:53:39;14.00;99.90
46552;DHT22;32278;51.810;4.712;2022-09-21T07:56:07;14.10;99.90
46552;DHT22;32278;51.810;4.712;2022-09-21T07:58:34;14.20;99.90
46552;DHT22;32278;51.810;4.712;2022-09-21T08:01:18;14.10;99.90
46552;DHT22;32278;51.810;4.712;2022-09-21T08:03:47;14.00;99.90
46552;DHT22;32278;51.810;4.712;2022-09-21T08:06:12;14.20;99.90
46552;DHT22;32278;51.810;4.712;2022-09-21T08:08:38;14.10;99.90
46552;DHT22;32278;51.810;4.712;2022-09-21T08:11:06;14.20;99.90
46552;DHT22;32278;51.810;4.712;2022-09-21T08:13:33;14.40;99.90
46552;DHT22;32278;51.810;4.712;2022-09-21T08:16:00;14.50;99.90
46552;DHT22;32278;51.810;4.712;2022-09-21T08:18:26;14.50;99.90
46552;DHT22;32278;51.810;4.712;2022-09-21T08:20:54;14.70;99.90
46552;DHT22;32278;51.810;4.712;2022-09-21T08:23:20;14.90;99.90
46552;DHT22;32278;51.810;4.712;2022-09-21T08:25:45;15.00;99.90
46552;DHT22;32278;51.810;4.712;2022-09-21T08:28:11;15.30;99.90
46552;DHT22;32278;51.810;4.712;2022-09-21T08:30:36;15.70;99.90
46552;DHT22;32278;51.810;4.712;2022-09-21T08:33:02;16.10;99.90
46552;DHT22;32278;51.810;4.712;2022-09-21T08:35:28;16.40;99.90
46552;DHT22;32278;51.810;4.712;2022-09-21T08:37:53;16.50;99.90
46552;DHT22;32278;51.810;4.712;2022-09-21T08:40:19;16.60;99.90
46552;DHT22;32278;51.810;4.712;2022-09-21T08:42:56;16.70;99.90
46552;DHT22;32278;51.810;4.712;2022-09-21T08:45:28;16.60;99.90
46552;DHT22;32278;51.810;4.712;2022-09-21T08:47:58;16.90;99.90
46552;DHT22;32278;51.810;4.712;2022-09-21T08:50:28;17.00;99.90
46552;DHT22;32278;51.810;4.712;2022-09-21T08:53:00;16.80;99.90
46552;DHT22;32278;51.810;4.712;2022-09-21T08:55:27;17.10;99.90
46552;DHT22;32278;51.810;4.712;2022-09-21T08:57:52;17.30;99.90
46552;DHT22;32278;51.810;4.712;2022-09-21T09:00:19;17.50;99.90
46552;DHT22;32278;51.810;4.712;2022-09-21T09:03:07;17.40;99.90
46552;DHT22;32278;51.810;4.712;2022-09-21T09:06:06;17.30;99.90
46552;DHT22;32278;51.810;4.712;2022-09-21T09:08:59;17.30;99.90
46552;DHT22;32278;51.810;4.712;2022-09-21T09:11:56;17.10;99.90
46552;DHT22;32278;51.810;4.712;2022-09-21T09:14:57;17.00;99.90
46552;DHT22;32278;51.810;4.712;2022-09-21T09:20:23;17.10;99.90
46552;DHT22;32278;51.810;4.712;2022-09-21T09:23:11;17.00;99.90
46552;DHT22;32278;51.810;4.712;2022-09-21T09:25:41;16.30;99.90
46552;DHT22;32278;51.810;4.712;2022-09-21T09:31:00;15.90;99.90
46552;DHT22;32278;51.810;4.712;2022-09-21T09:36:15;16.40;99.90
46552;DHT22;32278;51.810;4.712;2022-09-21T09:38:56;16.30;99.90
46552;DHT22;32278;51.810;4.712;2022-09-21T09:44:40;16.20;99.90
46552;DHT22;32278;51.810;4.712;2022-09-21T09:50:19;15.90;99.90
46552;DHT22;32278;51.810;4.712;2022-09-21T09:52:47;16.10;99.90
46552;DHT22;32278;51.810;4.712;2022-09-21T09:55:36;15.70;99.90
46552;DHT22;32278;51.810;4.712;2022-09-21T09:58:02;15.70;99.90
46552;DHT22;32278;51.810;4.712;2022-09-21T10:00:28;15.90;99.90
46552;DHT22;32278;51.810;4.712;2022-09-21T10:02:55;16.00;99.90
46552;DHT22;32278;51.810;4.712;2022-09-21T10:07:49;15.90;99.90
46552;DHT22;32278;51.810;4.712;2022-09-21T10:15:41;16.10;99.90
46552;DHT22;32278;51.810;4.712;2022-09-21T10:18:14;16.20;99.90
46552;DHT22;32278;51.810;4.712;2022-09-21T10:21:38;16.30;99.90
46552;DHT22;32278;51.810;4.712;2022-09-21T10:23:37;15.90;99.90
46552;DHT22;32278;51.810;4.712;2022-09-21T10:26:07;15.60;99.90
46552;DHT22;32278;51.810;4.712;2022-09-21T10:28:34;15.50;99.90
46552;DHT22;32278;51.810;4.712;2022-09-21T10:31:17;15.50;99.90
46552;DHT22;32278;51.810;4.712;2022-09-21T10:33:49;15.70;99.90
46552;DHT22;32278;51.810;4.712;2022-09-21T10:38:53;15.70;99.90
46552;DHT22;32278;51.810;4.712;2022-09-21T10:41:19;15.70;99.90
46552;DHT22;32278;51.810;4.712;2022-09-21T10:43:45;15.70;99.90
46552;DHT22;32278;51.810;4.712;2022-09-21T10:46:11;15.60;99.90
46552;DHT22;32278;51.810;4.712;2022-09-21T10:48:36;15.70;99.90
46552;DHT22;32278;51.810;4.712;2022-09-21T10:51:02;15.80;99.90
46552;DHT22;32278;51.810;4.712;2022-09-21T10:53:33;16.00;99.90
46552;DHT22;32278;51.810;4.712;2022-09-21T10:58:38;16.40;99.90
46552;DHT22;32278;51.810;4.712;2022-09-21T11:01:12;16.30;99.90
46552;DHT22;32278;51.810;4.712;2022-09-21T11:03:49;16.40;99.90
46552;DHT22;32278;51.810;4.712;2022-09-21T11:06:30;16.90;99.90
46552;DHT22;32278;51.810;4.712;2022-09-21T11:09:08;17.00;99.90
46552;DHT22;32278;51.810;4.712;2022-09-21T11:11:44;17.30;99.90
46552;DHT22;32278;51.810;4.712;2022-09-21T11:14:43;17.10;99.90
46552;DHT22;32278;51.810;4.712;2022-09-21T11:17:34;17.00;99.90
46552;DHT22;32278;51.810;4.712;2022-09-21T11:20:38;17.30;99.90
46552;DHT22;32278;51.810;4.712;2022-09-21T11:26:03;17.70;99.90
46552;DHT22;32278;51.810;4.712;2022-09-21T11:28:45;17.90;99.90
46552;DHT22;32278;51.810;4.712;2022-09-21T11:36:24;18.50;99.90
46552;DHT22;32278;51.810;4.712;2022-09-21T11:39:13;19.20;99.90
46552;DHT22;32278;51.810;4.712;2022-09-21T11:44:50;19.90;99.90
46552;DHT22;32278;51.810;4.712;2022-09-21T11:53:08;18.10;99.90
46552;DHT22;32278;51.810;4.712;2022-09-21T11:55:43;18.30;99.90
46552;DHT22;32278;51.810;4.712;2022-09-21T12:01:17;19.10;99.90
46552;DHT22;32278;51.810;4.712;2022-09-21T12:04:19;19.80;99.90
46552;DHT22;32278;51.810;4.712;2022-09-21T12:12:08;18.20;99.90
46552;DHT22;32278;51.810;4.712;2022-09-21T12:15:05;18.50;99.90
46552;DHT22;32278;51.810;4.712;2022-09-21T12:23:00;20.00;99.90
46552;DHT22;32278;51.810;4.712;2022-09-21T12:25:41;19.70;99.90
46552;DHT22;32278;51.810;4.712;2022-09-21T12:28:17;19.40;99.90
46552;DHT22;32278;51.810;4.712;2022-09-21T12:30:48;18.70;99.90
46552;DHT22;32278;51.810;4.712;2022-09-21T12:33:26;18.50;99.90
46552;DHT22;32278;51.810;4.712;2022-09-21T12:36:24;18.20;99.90
46552;DHT22;32278;51.810;4.712;2022-09-21T12:41:41;17.80;99.90
46552;DHT22;32278;51.810;4.712;2022-09-21T12:46:50;18.40;99.90
46552;DHT22;32278;51.810;4.712;2022-09-21T12:49:22;18.90;99.90
46552;DHT22;32278;51.810;4.712;2022-09-21T12:51:54;19.50;99.90
46552;DHT22;32278;51.810;4.712;2022-09-21T12:54:41;19.80;99.90
46552;DHT22;32278;51.810;4.712;2022-09-21T12:57:11;20.20;99.90
46552;DHT22;32278;51.810;4.712;2022-09-21T13:02:39;20.40;99.90
46552;DHT22;32278;51.810;4.712;2022-09-21T13:05:13;20.50;99.90
46552;DHT22;32278;51.810;4.712;2022-09-21T13:13:01;20.10;99.90
46552;DHT22;32278;51.810;4.712;2022-09-21T13:15:42;19.20;99.90
46552;DHT22;32278;51.810;4.712;2022-09-21T13:18:26;18.40;99.90
46552;DHT22;32278;51.810;4.712;2022-09-21T13:20:53;18.50;99.90
46552;DHT22;32278;51.810;4.712;2022-09-21T13:23:32;18.50;99.90
46552;DHT22;32278;51.810;4.712;2022-09-21T13:26:04;19.00;99.90
46552;DHT22;32278;51.810;4.712;2022-09-21T13:36:33;18.30;99.90
46552;DHT22;32278;51.810;4.712;2022-09-21T13:39:16;17.80;99.90
46552;DHT22;32278;51.810;4.712;2022-09-21T13:41:42;17.70;99.90
46552;DHT22;32278;51.810;4.712;2022-09-21T13:44:18;18.00;99.90
46552;DHT22;32278;51.810;4.712;2022-09-21T13:46:47;18.50;99.90
46552;DHT22;32278;51.810;4.712;2022-09-21T13:49:27;18.20;99.90
46552;DHT22;32278;51.810;4.712;2022-09-21T13:52:29;17.90;99.90
46552;DHT22;32278;51.810;4.712;2022-09-21T13:55:00;17.70;99.90
46552;DHT22;32278;51.810;4.712;2022-09-21T13:57:40;17.40;99.90
46552;DHT22;32278;51.810;4.712;2022-09-21T14:02:52;17.20;99.90
46552;DHT22;32278;51.810;4.712;2022-09-21T14:11:08;17.20;99.90
46552;DHT22;32278;51.810;4.712;2022-09-21T14:13:40;17.10;99.90
46552;DHT22;32278;51.810;4.712;2022-09-21T14:19:02;17.20;99.90
46552;DHT22;32278;51.810;4.712;2022-09-21T14:21:28;17.10;99.90
46552;DHT22;32278;51.810;4.712;2022-09-21T14:26:44;16.90;99.90
46552;DHT22;32278;51.810;4.712;2022-09-21T14:29:20;16.90;99.90
46552;DHT22;32278;51.810;4.712;2022-09-21T14:31:49;17.00;99.90
46552;DHT22;32278;51.810;4.712;2022-09-21T14:34:21;16.90;99.90
46552;DHT22;32278;51.810;4.712;2022-09-21T14:36:49;16.90;99.90
46552;DHT22;32278;51.810;4.712;2022-09-21T14:39:23;16.90;99.90
46552;DHT22;32278;51.810;4.712;2022-09-21T14:41:53;17.00;99.90
46552;DHT22;32278;51.810;4.712;2022-09-21T14:44:25;17.00;99.90
46552;DHT22;32278;51.810;4.712;2022-09-21T14:47:15;16.90;99.90
46552;DHT22;32278;51.810;4.712;2022-09-21T14:50:03;16.80;99.90
46552;DHT22;32278;51.810;4.712;2022-09-21T14:52:41;17.00;99.90
46552;DHT22;32278;51.810;4.712;2022-09-21T14:55:32;17.20;99.90
46552;DHT22;32278;51.810;4.712;2022-09-21T15:01:33;17.50;99.90
46552;DHT22;32278;51.810;4.712;2022-09-21T15:06:34;17.30;99.90
46552;DHT22;32278;51.810;4.712;2022-09-21T15:09:29;17.40;99.90
46552;DHT22;32278;51.810;4.712;2022-09-21T15:12:22;17.40;99.90
46552;DHT22;32278;51.810;4.712;2022-09-21T15:14:57;17.40;99.90
46552;DHT22;32278;51.810;4.712;2022-09-21T15:17:28;17.50;99.90
46552;DHT22;32278;51.810;4.712;2022-09-21T15:20:00;17.40;99.90
46552;DHT22;32278;51.810;4.712;2022-09-21T15:22:42;17.50;99.90
46552;DHT22;32278;51.810;4.712;2022-09-21T15:25:12;17.50;99.90
46552;DHT22;32278;51.810;4.712;2022-09-21T15:27:41;17.60;99.90
46552;DHT22;32278;51.810;4.712;2022-09-21T15:30:23;17.70;99.90
46552;DHT22;32278;51.810;4.712;2022-09-21T15:33:01;17.80;99.90
46552;DHT22;32278;51.810;4.712;2022-09-21T15:35:29;17.70;99.90
46552;DHT22;32278;51.810;4.712;2022-09-21T15:37:57;17.30;99.90
46552;DHT22;32278;51.810;4.712;2022-09-21T15:40:33;17.20;99.90
46552;DHT22;32278;51.810;4.712;2022-09-21T15:43:16;17.10;99.90
46552;DHT22;32278;51.810;4.712;2022-09-21T15:45:57;17.10;99.90
46552;DHT22;32278;51.810;4.712;2022-09-21T15:48:36;17.20;99.90
46552;DHT22;32278;51.810;4.712;2022-09-21T15:51:17;17.20;99.90
46552;DHT22;32278;51.810;4.712;2022-09-21T15:53:51;17.30;99.90
46552;DHT22;32278;51.810;4.712;2022-09-21T15:56:19;17.30;99.90
46552;DHT22;32278;51.810;4.712;2022-09-21T15:58:47;17.40;99.90
46552;DHT22;32278;51.810;4.712;2022-09-21T16:01:20;17.20;99.90
46552;DHT22;32278;51.810;4.712;2022-09-21T16:04:00;17.20;99.90
46552;DHT22;32278;51.810;4.712;2022-09-21T16:06:34;17.10;99.90
46552;DHT22;32278;51.810;4.712;2022-09-21T16:11:49;17.10;99.90
46552;DHT22;32278;51.810;4.712;2022-09-21T16:14:16;16.90;99.90
46552;DHT22;32278;51.810;4.712;2022-09-21T16:22:35;16.80;99.90
46552;DHT22;32278;51.810;4.712;2022-09-21T16:25:01;16.80;99.90
46552;DHT22;32278;51.810;4.712;2022-09-21T16:27:30;16.90;99.90
46552;DHT22;32278;51.810;4.712;2022-09-21T16:29:57;17.00;99.90
46552;DHT22;32278;51.810;4.712;2022-09-21T16:32:32;17.10;99.90
46552;DHT22;32278;51.810;4.712;2022-09-21T16:35:23;17.00;99.90
46552;DHT22;32278;51.810;4.712;2022-09-21T16:37:52;17.10;99.90
46552;DHT22;32278;51.810;4.712;2022-09-21T16:40:22;17.00;99.90
46552;DHT22;32278;51.810;4.712;2022-09-21T16:42:48;16.90;99.90
46552;DHT22;32278;51.810;4.712;2022-09-21T16:45:23;16.80;99.90
46552;DHT22;32278;51.810;4.712;2022-09-21T16:47:49;16.70;99.90
46552;DHT22;32278;51.810;4.712;2022-09-21T16:50:18;16.70;99.90
46552;DHT22;32278;51.810;4.712;2022-09-21T16:52:44;16.60;99.90
46552;DHT22;32278;51.810;4.712;2022-09-21T16:55:13;16.70;99.90
46552;DHT22;32278;51.810;4.712;2022-09-21T16:57:40;16.70;99.90
46552;DHT22;32278;51.810;4.712;2022-09-21T17:00:11;16.60;99.90
46552;DHT22;32278;51.810;4.712;2022-09-21T17:02:37;16.60;99.90
46552;DHT22;32278;51.810;4.712;2022-09-21T17:05:09;16.50;99.90
46552;DHT22;32278;51.810;4.712;2022-09-21T17:07:35;16.30;99.90
46552;DHT22;32278;51.810;4.712;2022-09-21T17:10:11;16.30;99.90
46552;DHT22;32278;51.810;4.712;2022-09-21T17:12:38;16.40;99.90
46552;DHT22;32278;51.810;4.712;2022-09-21T17:15:04;16.40;99.90
46552;DHT22;32278;51.810;4.712;2022-09-21T17:17:32;16.50;99.90
46552;DHT22;32278;51.810;4.712;2022-09-21T17:20:01;16.50;99.90
46552;DHT22;32278;51.810;4.712;2022-09-21T17:22:27;16.50;99.90
46552;DHT22;32278;51.810;4.712;2022-09-21T17:24:54;16.40;99.90
46552;DHT22;32278;51.810;4.712;2022-09-21T17:27:22;16.30;99.90
46552;DHT22;32278;51.810;4.712;2022-09-21T17:29:48;16.20;99.90
46552;DHT22;32278;51.810;4.712;2022-09-21T17:32:15;16.20;99.90
46552;DHT22;32278;51.810;4.712;2022-09-21T17:34:40;16.10;99.90
46552;DHT22;32278;51.810;4.712;2022-09-21T17:37:07;16.10;99.90
46552;DHT22;32278;51.810;4.712;2022-09-21T17:39:34;16.00;99.90
46552;DHT22;32278;51.810;4.712;2022-09-21T17:42:16;16.00;99.90
46552;DHT22;32278;51.810;4.712;2022-09-21T17:47:44;15.90;99.90
46552;DHT22;32278;51.810;4.712;2022-09-21T17:52:42;15.60;99.90
46552;DHT22;32278;51.810;4.712;2022-09-21T17:55:27;15.40;99.90
46552;DHT22;32278;51.810;4.712;2022-09-21T17:58:13;15.40;99.90
46552;DHT22;32278;51.810;4.712;2022-09-21T18:03:35;15.10;99.90
46552;DHT22;32278;51.810;4.712;2022-09-21T18:06:06;15.00;99.90
46552;DHT22;32278;51.810;4.712;2022-09-21T18:08:33;14.90;99.90
46552;DHT22;32278;51.810;4.712;2022-09-21T18:11:26;14.70;99.90
46552;DHT22;32278;51.810;4.712;2022-09-21T18:21:45;14.30;99.90
46552;DHT22;32278;51.810;4.712;2022-09-21T18:24:29;14.20;99.90
46552;DHT22;32278;51.810;4.712;2022-09-21T18:26:58;14.20;99.90
46552;DHT22;32278;51.810;4.712;2022-09-21T18:29:32;14.10;99.90